Time;durP1;ratioP1;P1;durP2;ratioP2;P2;SDS_P1;SDS_P2;PMS_P1;PMS_P2;Temp;Humidity;BMP_temperature;BMP_pressure;BME280_temperature;BME280_humidity;BME280_pressure;Samples;Min_cycle;Max_cycle;Signal;HPM_P1;HPM_P2
2021/11/14 00:00:43;;;;;;;;;;;;;;;-0.82;84.08;97759.22;108014;1275;68452;-69
2021/11/14 00:03:18;;;;;;;;;;;;;;;-0.82;83.86;97758.17;108083;1272;68586;-72
2021/11/14 00:05:47;;;;;;;;;;;;;;;-0.82;83.62;97763.31;108095;1270;59732;-72
2021/11/14 00:08:18;;;;;;;;;;;;;;;-0.81;83.40;97757.83;108091;1272;59703;-68
2021/11/14 00:10:49;;;;;;;;;;;;;;;-0.80;83.20;97761.73;107974;1272;71649;-70
2021/11/14 00:13:19;;;;;;;;;;;;;;;-0.81;83.49;97759.85;108120;1272;67673;-67
2021/11/14 00:15:47;;;;;;;;;;;;;;;-0.85;84.72;97760.80;108105;1274;69463;-72
2021/11/14 00:18:17;;;;;;;;;;;;;;;-0.87;85.13;97760.02;108086;1272;59754;-69
2021/11/14 00:20:47;;;;;;;;;;;;;;;-0.87;84.24;97759.84;108166;1272;59680;-73
2021/11/14 00:23:16;;;;;;;;;;;;;;;-0.86;83.98;97763.23;108063;1275;70775;-67
2021/11/14 00:25:45;;;;;;;;;;;;;;;-0.85;84.13;97766.10;108070;1272;67664;-73
2021/11/14 00:28:15;;;;;;;;;;;;;;;-0.83;83.62;97766.25;108056;1274;68601;-72
2021/11/14 00:30:49;;;;;;;;;;;;;;;-0.81;83.31;97765.69;108173;1269;59719;-72
2021/11/14 00:33:18;;;;;;;;;;;;;;;-0.80;83.82;97766.02;108095;1272;59738;-72
2021/11/14 00:35:51;;;;;;;;;;;;;;;-0.81;83.61;97766.90;108033;1275;71631;-73
2021/11/14 00:38:22;;;;;;;;;;;;;;;-0.84;83.98;97764.73;108072;1273;67850;-71
2021/11/14 00:40:52;;;;;;;;;;;;;;;-0.85;83.19;97765.77;108131;1272;69490;-75
2021/11/14 00:43:21;;;;;;;;;;;;;;;-0.84;82.78;97769.01;108060;1272;60247;-74
2021/11/14 00:45:50;;;;;;;;;;;;;;;-0.85;82.71;97769.36;108212;1269;59700;-74
2021/11/14 00:48:19;;;;;;;;;;;;;;;-0.88;84.48;97769.09;108119;1273;70737;-72
2021/11/14 00:50:48;;;;;;;;;;;;;;;-0.98;87.72;97768.10;108162;1273;68647;-70
2021/11/14 00:53:18;;;;;;;;;;;;;;;-0.99;87.68;97768.83;108221;1270;67822;-71
2021/11/14 00:55:48;;;;;;;;;;;;;;;-1.00;87.09;97769.02;108176;1269;59760;-70
2021/11/14 00:58:17;;;;;;;;;;;;;;;-0.98;85.85;97766.91;107993;1274;59739;-72
2021/11/14 01:00:47;;;;;;;;;;;;;;;-1.02;86.44;97769.90;108184;1272;70799;-73
2021/11/14 01:03:16;;;;;;;;;;;;;;;-1.03;87.35;97772.31;108196;1271;67706;-71
2021/11/14 01:05:45;;;;;;;;;;;;;;;-1.05;86.40;97772.35;108087;1270;67867;-72
2021/11/14 01:08:16;;;;;;;;;;;;;;;-1.04;85.66;97770.79;108214;1272;59777;-71
2021/11/14 01:10:47;;;;;;;;;;;;;;;-1.02;85.19;97771.45;108196;1271;59768;-73
2021/11/14 01:13:16;;;;;;;;;;;;;;;-1.01;85.57;97774.02;108040;1272;70809;-68
2021/11/14 01:15:46;;;;;;;;;;;;;;;-1.00;84.58;97774.32;108044;1272;69260;-70
2021/11/14 01:18:16;;;;;;;;;;;;;;;-0.98;84.00;97776.33;108055;1272;69483;-70
2021/11/14 01:20:47;;;;;;;;;;;;;;;-0.98;83.79;97777.20;108170;1269;59694;-71
2021/11/14 01:23:17;;;;;;;;;;;;;;;-0.99;83.79;97778.92;108101;1272;59761;-73
2021/11/14 01:25:46;;;;;;;;;;;;;;;-1.00;83.61;97782.71;108225;1269;71707;-73
2021/11/14 01:28:17;;;;;;;;;;;;;;;-1.00;83.12;97781.84;108036;1273;68006;-71
2021/11/14 01:30:48;;;;;;;;;;;;;;;-1.01;83.53;97782.72;108233;1269;69459;-72
2021/11/14 01:33:19;;;;;;;;;;;;;;;-1.05;84.78;97781.09;108035;1270;59723;-73
2021/11/14 01:35:48;;;;;;;;;;;;;;;-1.05;83.75;97784.52;108176;1272;59655;-72
2021/11/14 01:38:17;;;;;;;;;;;;;;;-1.05;83.46;97779.71;108202;1272;70702;-73
2021/11/14 01:40:49;;;;;;;;;;;;;;;-1.04;83.25;97781.23;108154;1272;68439;-71
2021/11/14 01:43:21;;;;;;;;;;;;;;;-1.05;83.03;97783.48;108105;1274;69479;-70
2021/11/14 01:45:50;;;;;;;;;;;;;;;-1.06;84.05;97779.90;108037;1272;59713;-72
2021/11/14 01:48:21;;;;;;;;;;;;;;;-1.11;85.33;97783.42;108151;1272;59726;-73
2021/11/14 01:50:50;;;;;;;;;;;;;;;-1.16;84.93;97785.24;108140;1272;71478;-71
2021/11/14 01:53:20;;;;;;;;;;;;;;;-1.18;84.15;97782.20;108155;1269;66943;-72
2021/11/14 01:55:49;;;;;;;;;;;;;;;-1.19;84.48;97786.51;108152;1269;68641;-73
2021/11/14 01:58:20;;;;;;;;;;;;;;;-1.21;84.90;97783.64;108053;1274;59770;-72
2021/11/14 02:00:52;;;;;;;;;;;;;;;-1.21;84.18;97783.62;108145;1272;59703;-72
2021/11/14 02:03:23;;;;;;;;;;;;;;;-1.21;83.64;97782.43;108132;1272;70385;-67
2021/11/14 02:05:53;;;;;;;;;;;;;;;-1.21;83.57;97787.73;108144;1272;68641;-68
2021/11/14 02:08:23;;;;;;;;;;;;;;;-1.21;83.33;97788.77;108067;1272;68473;-72
2021/11/14 02:10:52;;;;;;;;;;;;;;;-1.19;82.91;97787.54;108186;1272;59729;-73
2021/11/14 02:13:22;;;;;;;;;;;;;;;-1.17;82.83;97783.89;108061;1272;59694;-72
2021/11/14 02:15:52;;;;;;;;;;;;;;;-1.18;84.90;97785.63;108255;1272;71575;-73
2021/11/14 02:18:26;;;;;;;;;;;;;;;-1.21;85.03;97790.48;107875;1275;67856;-73
2021/11/14 02:20:57;;;;;;;;;;;;;;;-1.20;83.83;97789.43;108106;1272;69415;-71
2021/11/14 02:23:34;;;;;;;;;;;;;;;-1.18;83.91;97792.48;107943;1269;59633;-72
2021/11/14 02:26:06;;;;;;;;;;;;;;;-1.17;83.23;97792.27;107974;1275;59742;-72
2021/11/14 02:28:39;;;;;;;;;;;;;;;-1.15;82.96;97793.43;108386;1269;70915;-73
2021/11/14 02:31:15;;;;;;;;;;;;;;;-1.14;82.64;97794.78;108216;1272;68732;-71
2021/11/14 02:33:47;;;;;;;;;;;;;;;-1.17;83.16;97792.60;108092;1271;68871;-73
2021/11/14 02:36:21;;;;;;;;;;;;;;;-1.17;83.03;97794.69;108064;1274;59709;-73
2021/11/14 02:38:53;;;;;;;;;;;;;;;-1.21;84.57;97792.54;108139;1273;59643;-71
2021/11/14 02:41:26;;;;;;;;;;;;;;;-1.25;83.97;97793.64;107991;1275;71595;-71
2021/11/14 02:43:58;;;;;;;;;;;;;;;-1.28;83.35;97793.70;108093;1272;68796;-74
2021/11/14 02:46:29;;;;;;;;;;;;;;;-1.27;82.85;97794.20;108024;1271;69444;-73
2021/11/14 02:48:59;;;;;;;;;;;;;;;-1.28;82.78;97795.40;107808;1272;59774;-72
2021/11/14 02:51:29;;;;;;;;;;;;;;;-1.29;82.78;97797.31;108010;1275;59715;-72
2021/11/14 02:54:00;;;;;;;;;;;;;;;-1.33;83.56;97792.06;108216;1275;71391;-73
2021/11/14 02:56:31;;;;;;;;;;;;;;;-1.38;84.94;97790.48;108134;1274;68493;-70
2021/11/14 02:59:03;;;;;;;;;;;;;;;-1.42;84.57;97794.46;108225;1272;69442;-73
2021/11/14 03:01:41;;;;;;;;;;;;;;;-1.45;85.11;97792.33;108242;1272;59738;-72
2021/11/14 03:04:17;;;;;;;;;;;;;;;-1.47;84.87;97795.59;108038;1273;59680;-74
2021/11/14 03:06:50;;;;;;;;;;;;;;;-1.47;85.26;97794.58;108043;1274;71616;-73
2021/11/14 03:09:23;;;;;;;;;;;;;;;-1.47;85.46;97796.97;107927;1275;68789;-72
2021/11/14 03:11:57;;;;;;;;;;;;;;;-1.49;85.42;97796.83;108039;1273;69320;-76
2021/11/14 03:14:36;;;;;;;;;;;;;;;-1.50;85.77;97792.75;108068;1272;59763;-74
2021/11/14 03:17:13;;;;;;;;;;;;;;;-1.52;85.71;97792.27;107976;1272;59714;-73
2021/11/14 03:19:49;;;;;;;;;;;;;;;-1.53;85.17;97792.98;108070;1272;71252;-74
2021/11/14 03:22:23;;;;;;;;;;;;;;;-1.54;85.58;97787.69;108038;1274;68652;-73
2021/11/14 03:25:01;;;;;;;;;;;;;;;-1.54;84.78;97787.67;107913;1272;69061;-74
2021/11/14 03:27:39;;;;;;;;;;;;;;;-1.49;83.89;97789.98;108023;1272;59723;-73
2021/11/14 03:30:19;;;;;;;;;;;;;;;-1.48;84.06;97794.58;107952;1274;59709;-74
2021/11/14 03:32:57;;;;;;;;;;;;;;;-1.57;85.37;97795.25;107879;1273;70644;-70
2021/11/14 03:35:36;;;;;;;;;;;;;;;-1.60;84.32;97791.39;107924;1276;67667;-71
2021/11/14 03:38:06;;;;;;;;;;;;;;;-1.63;83.96;97789.20;107991;1272;68640;-71
2021/11/14 03:40:36;;;;;;;;;;;;;;;-1.63;83.88;97789.55;107961;1270;59760;-69
2021/11/14 03:43:06;;;;;;;;;;;;;;;-1.62;83.60;97788.01;108111;1275;59690;-71
2021/11/14 03:45:36;;;;;;;;;;;;;;;-1.66;84.66;97785.34;108015;1271;71356;-70
2021/11/14 03:48:06;;;;;;;;;;;;;;;-1.71;85.21;97788.69;108059;1272;68421;-70
2021/11/14 03:50:35;;;;;;;;;;;;;;;-1.74;85.09;97788.23;108048;1274;68833;-72
2021/11/14 03:53:06;;;;;;;;;;;;;;;-1.73;84.38;97787.17;107974;1275;59710;-73
2021/11/14 03:55:36;;;;;;;;;;;;;;;-1.72;84.15;97788.70;108114;1272;59708;-73
2021/11/14 03:58:05;;;;;;;;;;;;;;;-1.69;84.22;97788.81;108101;1272;72168;-74
2021/11/14 04:00:37;;;;;;;;;;;;;;;-1.66;83.92;97788.94;108089;1272;68235;-70
2021/11/14 04:03:07;;;;;;;;;;;;;;;-1.65;84.89;97787.39;107998;1272;69243;-72
2021/11/14 04:05:37;;;;;;;;;;;;;;;-1.63;86.33;97792.14;108070;1272;59691;-71
2021/11/14 04:08:10;;;;;;;;;;;;;;;-1.63;86.48;97788.52;108045;1275;59761;-71
2021/11/14 04:10:40;;;;;;;;;;;;;;;-1.62;86.65;97784.76;107772;1274;69947;-71
2021/11/14 04:13:09;;;;;;;;;;;;;;;-1.62;88.14;97779.63;108036;1274;68626;-69
2021/11/14 04:15:39;;;;;;;;;;;;;;;-1.62;87.65;97779.29;108030;1272;69095;-72
2021/11/14 04:18:08;;;;;;;;;;;;;;;-1.62;85.19;97780.83;107917;1274;59783;-72
2021/11/14 04:20:40;;;;;;;;;;;;;;;-1.65;85.44;97778.31;108088;1272;59668;-72
2021/11/14 04:23:10;;;;;;;;;;;;;;;-1.68;85.93;97772.55;107955;1275;70813;-72
2021/11/14 04:25:40;;;;;;;;;;;;;;;-1.67;85.78;97773.05;107988;1275;67713;-71
2021/11/14 04:28:11;;;;;;;;;;;;;;;-1.67;86.37;97776.80;108037;1272;68502;-72
2021/11/14 04:30:43;;;;;;;;;;;;;;;-1.70;86.82;97780.13;108011;1272;59778;-72
2021/11/14 04:33:13;;;;;;;;;;;;;;;-1.72;87.03;97780.83;108020;1272;59716;-70
2021/11/14 04:35:43;;;;;;;;;;;;;;;-1.73;87.79;97779.14;108094;1272;70812;-72
2021/11/14 04:38:12;;;;;;;;;;;;;;;-1.70;86.59;97784.05;108068;1272;68325;-73
2021/11/14 04:40:43;;;;;;;;;;;;;;;-1.69;85.53;97789.33;108025;1272;68491;-72
2021/11/14 04:43:13;;;;;;;;;;;;;;;-1.68;84.80;97793.39;107952;1272;59717;-73
2021/11/14 04:45:42;;;;;;;;;;;;;;;-1.67;84.38;97794.42;108073;1272;59684;-71
2021/11/14 04:48:11;;;;;;;;;;;;;;;-1.71;85.98;97790.23;108045;1271;71584;-72
2021/11/14 04:50:41;;;;;;;;;;;;;;;-1.73;85.64;97794.86;108034;1271;68626;-70
2021/11/14 04:53:11;;;;;;;;;;;;;;;-1.70;85.50;97798.08;108014;1275;68624;-70
2021/11/14 04:55:40;;;;;;;;;;;;;;;-1.69;86.22;97801.31;107672;1271;617605;-72
2021/11/14 04:58:11;;;;;;;;;;;;;;;-1.67;85.62;97805.36;108116;1272;59779;-69
2021/11/14 05:00:42;;;;;;;;;;;;;;;-1.66;86.13;97805.35;108136;1272;70801;-70
2021/11/14 05:03:13;;;;;;;;;;;;;;;-1.66;86.78;97808.59;108131;1272;68639;-70
2021/11/14 05:05:43;;;;;;;;;;;;;;;-1.65;86.45;97809.60;108114;1272;69379;-71
2021/11/14 05:08:13;;;;;;;;;;;;;;;-1.63;85.58;97809.89;108052;1272;59730;-72
2021/11/14 05:10:43;;;;;;;;;;;;;;;-1.60;84.70;97810.37;108061;1272;59786;-71
2021/11/14 05:13:12;;;;;;;;;;;;;;;-1.59;84.51;97815.30;108023;1275;72183;-71
2021/11/14 05:15:41;;;;;;;;;;;;;;;-1.64;85.28;97817.95;108122;1272;69997;-72
2021/11/14 05:18:10;;;;;;;;;;;;;;;-1.66;84.86;97819.70;107941;1274;68463;-72
2021/11/14 05:20:39;;;;;;;;;;;;;;;-1.68;84.44;97820.77;108153;1274;59753;-72
2021/11/14 05:23:13;;;;;;;;;;;;;;;-1.68;84.16;97824.69;108078;1272;59700;-73
2021/11/14 05:25:42;;;;;;;;;;;;;;;-1.68;84.30;97831.67;108062;1271;70839;-72
2021/11/14 05:28:12;;;;;;;;;;;;;;;-1.66;84.42;97833.55;108021;1272;66872;-72
2021/11/14 05:30:42;;;;;;;;;;;;;;;-1.63;83.75;97833.66;108110;1271;68789;-72
2021/11/14 05:33:11;;;;;;;;;;;;;;;-1.61;83.89;97835.86;108052;1272;59791;-70
2021/11/14 05:35:41;;;;;;;;;;;;;;;-1.59;83.98;97836.14;108104;1272;59742;-72
2021/11/14 05:38:10;;;;;;;;;;;;;;;-1.56;83.85;97834.38;108153;1272;71820;-72
2021/11/14 05:40:39;;;;;;;;;;;;;;;-1.58;84.89;97831.35;108100;1272;67820;-71
2021/11/14 05:43:09;;;;;;;;;;;;;;;-1.62;84.98;97837.58;108076;1274;69427;-72
2021/11/14 05:45:38;;;;;;;;;;;;;;;-1.60;84.18;97842.84;108073;1273;59777;-73
2021/11/14 05:48:07;;;;;;;;;;;;;;;-1.56;83.64;97848.91;108146;1271;59735;-72
2021/11/14 05:50:36;;;;;;;;;;;;;;;-1.52;83.69;97851.25;108000;1274;71594;-70
2021/11/14 05:53:05;;;;;;;;;;;;;;;-1.50;83.84;97850.35;108131;1272;68451;-71
2021/11/14 05:55:34;;;;;;;;;;;;;;;-1.46;83.59;97855.07;108021;1274;69543;-73
2021/11/14 05:58:06;;;;;;;;;;;;;;;-1.45;83.63;97855.38;108106;1272;59771;-73
2021/11/14 06:03:38;;;;;;;;;;;;;;;-1.41;84.30;97861.66;108160;1272;70780;-70
2021/11/14 06:06:07;;;;;;;;;;;;;;;-1.39;83.76;97862.13;108087;1272;67891;-69
2021/11/14 06:08:36;;;;;;;;;;;;;;;-1.38;84.18;97865.88;108133;1272;68603;-70
2021/11/14 06:11:05;;;;;;;;;;;;;;;-1.40;85.08;97869.83;107879;1274;59770;-70
2021/11/14 06:13:34;;;;;;;;;;;;;;;-1.44;85.81;97866.13;108071;1271;59725;-71
2021/11/14 06:16:03;;;;;;;;;;;;;;;-1.43;85.47;97875.19;108065;1270;70571;-72
2021/11/14 06:18:32;;;;;;;;;;;;;;;-1.45;85.41;97874.02;108102;1273;67930;-71
2021/11/14 06:21:00;;;;;;;;;;;;;;;-1.43;84.83;97877.24;108120;1271;69468;-69
2021/11/14 06:23:29;;;;;;;;;;;;;;;-1.42;85.83;97877.06;108165;1272;59754;-69
2021/11/14 06:25:58;;;;;;;;;;;;;;;-1.43;86.84;97885.10;108185;1272;59665;-69
2021/11/14 06:28:27;;;;;;;;;;;;;;;-1.39;85.88;97879.90;108023;1272;71574;-72
2021/11/14 06:30:56;;;;;;;;;;;;;;;-1.34;86.26;97880.33;108016;1272;69776;-71
2021/11/14 06:33:25;;;;;;;;;;;;;;;-1.28;86.43;97881.59;108149;1271;69457;-69
2021/11/14 06:35:55;;;;;;;;;;;;;;;-1.21;84.85;97883.70;108013;1272;59700;-71
2021/11/14 06:38:24;;;;;;;;;;;;;;;-1.16;84.66;97886.33;108092;1272;59790;-72
2021/11/14 06:40:53;;;;;;;;;;;;;;;-1.09;84.44;97888.95;107945;1275;70935;-72
2021/11/14 06:43:21;;;;;;;;;;;;;;;-1.05;84.45;97886.30;108118;1272;67917;-68
2021/11/14 06:45:50;;;;;;;;;;;;;;;-1.05;85.61;97887.50;107999;1272;69184;-72
2021/11/14 06:48:19;;;;;;;;;;;;;;;-1.09;87.25;97889.96;108048;1272;59754;-71
2021/11/14 06:50:48;;;;;;;;;;;;;;;-1.04;86.53;97888.34;108008;1273;59707;-72
2021/11/14 06:53:17;;;;;;;;;;;;;;;-0.97;85.44;97887.00;107986;1275;71611;-72
2021/11/14 06:55:46;;;;;;;;;;;;;;;-0.92;85.09;97887.92;107927;1273;68586;-70
2021/11/14 06:58:15;;;;;;;;;;;;;;;-0.85;84.56;97888.64;108072;1267;68900;-71
2021/11/14 07:00:44;;;;;;;;;;;;;;;-0.78;85.01;97888.33;108098;1272;59767;-68
2021/11/14 07:03:14;;;;;;;;;;;;;;;-0.76;85.47;97888.98;107940;1274;59772;-71
2021/11/14 07:05:44;;;;;;;;;;;;;;;-0.70;84.73;97888.87;107975;1274;71548;-72
2021/11/14 07:08:14;;;;;;;;;;;;;;;-0.61;83.99;97889.87;108067;1275;68602;-69
2021/11/14 07:10:44;;;;;;;;;;;;;;;-0.59;84.99;97894.45;108036;1271;68656;-73
2021/11/14 07:13:13;;;;;;;;;;;;;;;-0.59;85.70;97890.17;107992;1271;59748;-72
2021/11/14 07:15:42;;;;;;;;;;;;;;;-0.55;85.55;97888.04;107939;1274;59753;-72
2021/11/14 07:18:10;;;;;;;;;;;;;;;-0.47;84.93;97883.95;108049;1271;70762;-71
2021/11/14 07:20:39;;;;;;;;;;;;;;;-0.36;84.21;97877.19;107932;1272;69253;-75
2021/11/14 07:23:08;;;;;;;;;;;;;;;-0.29;84.58;97875.15;108078;1273;68667;-71
2021/11/14 07:25:37;;;;;;;;;;;;;;;-0.19;83.87;97876.12;107924;1274;59738;-75
2021/11/14 07:28:06;;;;;;;;;;;;;;;-0.14;83.71;97876.35;107991;1272;59715;-72
2021/11/14 07:30:34;;;;;;;;;;;;;;;-0.01;83.62;97877.26;108063;1272;71587;-73
2021/11/14 07:33:03;;;;;;;;;;;;;;;0.16;83.45;97883.55;107952;1275;67345;-75
2021/11/14 07:35:32;;;;;;;;;;;;;;;0.24;82.55;97883.86;108038;1272;69434;-74
2021/11/14 07:38:02;;;;;;;;;;;;;;;0.33;82.63;97886.90;107839;1274;59709;-73
2021/11/14 07:40:31;;;;;;;;;;;;;;;0.37;82.50;97887.31;108006;1275;59725;-71
2021/11/14 07:42:59;;;;;;;;;;;;;;;0.44;82.47;97886.98;107917;1274;71578;-74
2021/11/14 07:45:29;;;;;;;;;;;;;;;0.55;82.46;97887.23;108029;1271;68634;-73
2021/11/14 07:47:58;;;;;;;;;;;;;;;0.65;82.27;97888.17;108097;1272;69517;-73
2021/11/14 07:50:28;;;;;;;;;;;;;;;0.71;81.39;97890.60;107932;1275;59815;-71
2021/11/14 07:52:58;;;;;;;;;;;;;;;0.72;81.61;97888.33;108034;1272;59796;-73
2021/11/14 07:55:27;;;;;;;;;;;;;;;0.78;81.74;97889.73;107980;1272;71131;-72
2021/11/14 07:57:58;;;;;;;;;;;;;;;0.73;81.16;97892.95;107982;1272;67735;-74
2021/11/14 08:00:27;;;;;;;;;;;;;;;0.72;81.21;97888.52;108089;1272;68534;-76
2021/11/14 08:02:56;;;;;;;;;;;;;;;0.83;81.20;97890.44;108036;1271;59831;-75
2021/11/14 08:05:25;;;;;;;;;;;;;;;0.96;81.04;97893.53;107968;1275;59703;-70
2021/11/14 08:07:54;;;;;;;;;;;;;;;1.07;80.94;97896.34;108002;1272;71650;-71
2021/11/14 08:10:23;;;;;;;;;;;;;;;1.16;80.66;97894.02;107849;1274;68690;-73
2021/11/14 08:12:52;;;;;;;;;;;;;;;1.20;80.12;97891.17;107960;1275;69465;-71
2021/11/14 08:15:22;;;;;;;;;;;;;;;1.30;80.20;97892.61;107808;1274;59776;-70
2021/11/14 08:17:50;;;;;;;;;;;;;;;1.48;80.46;97894.16;108071;1271;59770;-71
2021/11/14 08:20:19;;;;;;;;;;;;;;;1.63;79.54;97893.90;108073;1271;71947;-73
2021/11/14 08:22:48;;;;;;;;;;;;;;;1.79;79.61;97895.14;107854;1271;67865;-71
2021/11/14 08:25:18;;;;;;;;;;;;;;;1.97;79.54;97896.81;108060;1272;69436;-72
2021/11/14 08:27:47;;;;;;;;;;;;;;;2.14;79.72;97894.77;108015;1272;59765;-71
2021/11/14 08:30:16;;;;;;;;;;;;;;;2.11;78.08;97897.59;107986;1274;59906;-72
2021/11/14 08:32:46;;;;;;;;;;;;;;;2.29;78.79;97897.02;108097;1272;71628;-70
2021/11/14 08:35:15;;;;;;;;;;;;;;;2.53;78.86;97896.59;108089;1272;68425;-71
2021/11/14 08:37:45;;;;;;;;;;;;;;;2.50;76.79;97897.39;108035;1274;69466;-72
2021/11/14 08:40:15;;;;;;;;;;;;;;;2.45;76.55;97896.17;107975;1271;59792;-71
2021/11/14 08:42:44;;;;;;;;;;;;;;;2.27;76.72;97894.35;108036;1271;59777;-69
2021/11/14 08:45:13;;;;;;;;;;;;;;;2.45;76.81;97893.40;107944;1272;70588;-71
2021/11/14 08:47:42;;;;;;;;;;;;;;;2.71;77.39;97893.77;107981;1273;68643;-70
2021/11/14 08:50:12;;;;;;;;;;;;;;;2.94;76.08;97897.79;107856;1275;68626;-69
2021/11/14 08:52:44;;;;;;;;;;;;;;;3.05;75.61;97894.64;108036;1272;59737;-72
2021/11/14 08:55:21;;;;;;;;;;;;;;;3.36;75.99;97891.83;108021;1272;59783;-73
2021/11/14 08:57:50;;;;;;;;;;;;;;;3.70;75.36;97891.96;108006;1275;71607;-71
2021/11/14 09:00:21;;;;;;;;;;;;;;;3.85;73.77;97890.02;108035;1271;69057;-70
2021/11/14 09:02:50;;;;;;;;;;;;;;;3.94;72.67;97891.23;108049;1272;69652;-72
2021/11/14 09:05:24;;;;;;;;;;;;;;;4.09;72.55;97893.23;108076;1271;59697;-70
2021/11/14 09:07:54;;;;;;;;;;;;;;;4.52;72.11;97888.54;107970;1273;59690;-73
2021/11/14 09:10:24;;;;;;;;;;;;;;;5.16;73.19;97886.21;108087;1271;70732;-73
2021/11/14 09:12:53;;;;;;;;;;;;;;;5.85;71.09;97878.80;108139;1272;67902;-72
2021/11/14 09:15:23;;;;;;;;;;;;;;;6.40;69.44;97878.98;107996;1275;68577;-73
2021/11/14 09:18:12;;;;;;;;;;;;;;;7.08;68.17;97877.70;108113;1272;59719;-74
2021/11/14 09:20:41;;;;;;;;;;;;;;;7.40;65.38;97877.58;107993;1272;59742;-74
2021/11/14 09:23:09;;;;;;;;;;;;;;;7.31;63.67;97877.91;108052;1275;71780;-74
2021/11/14 09:25:40;;;;;;;;;;;;;;;7.30;63.35;97877.76;108052;1272;67937;-75
2021/11/14 09:28:10;;;;;;;;;;;;;;;7.27;63.32;97874.61;108063;1271;69451;-75
2021/11/14 09:30:40;;;;;;;;;;;;;;;7.40;62.88;97872.39;107994;1272;59793;-73
2021/11/14 09:33:09;;;;;;;;;;;;;;;7.66;62.68;97866.13;108155;1271;59719;-74
2021/11/14 09:35:38;;;;;;;;;;;;;;;8.19;62.24;97868.93;108068;1272;70832;-71
2021/11/14 09:38:07;;;;;;;;;;;;;;;8.45;60.59;97866.29;108050;1272;68537;-75
2021/11/14 09:40:37;;;;;;;;;;;;;;;8.78;59.87;97867.20;108068;1273;69326;-74
2021/11/14 09:43:06;;;;;;;;;;;;;;;8.52;59.31;97862.60;107974;1275;59719;-74
2021/11/14 09:45:36;;;;;;;;;;;;;;;9.16;59.37;97862.16;107972;1275;59709;-72
2021/11/14 09:48:05;;;;;;;;;;;;;;;8.97;58.49;97860.68;108006;1272;71586;-71
2021/11/14 09:50:36;;;;;;;;;;;;;;;8.91;59.72;97859.29;107922;1275;67949;-74
2021/11/14 09:53:05;;;;;;;;;;;;;;;9.41;58.15;97856.61;107935;1274;69515;-71
2021/11/14 09:55:35;;;;;;;;;;;;;;;9.78;57.32;97859.93;108046;1271;59719;-74
2021/11/14 09:58:06;;;;;;;;;;;;;;;10.09;56.00;97852.60;108090;1272;59770;-73
2021/11/14 10:00:38;;;;;;;;;;;;;;;10.02;55.88;97851.64;108017;1271;70848;-72
2021/11/14 10:03:07;;;;;;;;;;;;;;;10.64;55.42;97847.98;108038;1272;67886;-73
2021/11/14 10:05:38;;;;;;;;;;;;;;;10.79;53.87;97846.25;107973;1274;69878;-73
2021/11/14 10:08:08;;;;;;;;;;;;;;;10.87;53.44;97843.33;107951;1272;59728;-73
2021/11/14 10:10:39;;;;;;;;;;;;;;;11.07;53.50;97843.70;108005;1273;59684;-75
2021/11/14 10:13:26;;;;;;;;;;;;;;;11.87;51.74;97842.70;107956;1275;71378;-74
2021/11/14 10:16:09;;;;;;;;;;;;;;;12.20;50.55;97840.85;107936;1274;67926;-73
2021/11/14 10:18:39;;;;;;;;;;;;;;;12.94;49.12;97838.83;108067;1271;69480;-71
2021/11/14 10:21:07;;;;;;;;;;;;;;;13.45;46.78;97834.81;108027;1271;59698;-73
2021/11/14 10:23:37;;;;;;;;;;;;;;;14.02;44.81;97836.41;108034;1271;59753;-71
2021/11/14 10:26:08;;;;;;;;;;;;;;;13.99;43.47;97831.27;107998;1274;70814;-72
2021/11/14 10:28:38;;;;;;;;;;;;;;;14.36;42.99;97830.34;108051;1270;67855;-73
2021/11/14 10:31:08;;;;;;;;;;;;;;;14.06;43.08;97824.02;107898;1275;69837;-74
2021/11/14 10:33:39;;;;;;;;;;;;;;;14.21;42.85;97832.13;108037;1269;59709;-71
2021/11/14 10:36:08;;;;;;;;;;;;;;;14.14;42.10;97829.70;108072;1272;59672;-74
2021/11/14 10:38:38;;;;;;;;;;;;;;;13.63;42.95;97827.45;108054;1271;71394;-74
2021/11/14 10:41:11;;;;;;;;;;;;;;;14.20;41.98;97829.00;108048;1271;68178;-74
2021/11/14 10:43:42;;;;;;;;;;;;;;;14.41;40.00;97824.56;108081;1274;69513;-74
2021/11/14 10:46:15;;;;;;;;;;;;;;;14.43;40.21;97820.16;108102;1272;59761;-74
2021/11/14 10:48:44;;;;;;;;;;;;;;;15.40;39.76;97819.41;108020;1272;59767;-73
2021/11/14 10:51:13;;;;;;;;;;;;;;;15.73;38.10;97817.98;107936;1275;71631;-73
2021/11/14 10:53:45;;;;;;;;;;;;;;;16.30;36.92;97816.91;107989;1275;68613;-72
2021/11/14 10:56:15;;;;;;;;;;;;;;;15.78;37.54;97812.94;108001;1268;68851;-71
2021/11/14 10:58:45;;;;;;;;;;;;;;;16.41;37.12;97817.21;107921;1274;59772;-73
2021/11/14 11:01:15;;;;;;;;;;;;;;;16.83;36.74;97814.23;107960;1275;59734;-74
2021/11/14 11:03:47;;;;;;;;;;;;;;;17.51;36.09;97808.27;107865;1274;70797;-72
2021/11/14 11:06:25;;;;;;;;;;;;;;;16.81;35.80;97806.02;108058;1271;68622;-75
2021/11/14 11:09:01;;;;;;;;;;;;;;;15.87;37.61;97810.92;108023;1274;69247;-74
2021/11/14 11:11:42;;;;;;;;;;;;;;;14.82;39.67;97803.09;108046;1271;59766;-74
2021/11/14 11:14:12;;;;;;;;;;;;;;;15.36;38.91;97803.08;108023;1272;59687;-75
2021/11/14 11:16:40;;;;;;;;;;;;;;;16.10;38.14;97800.33;107968;1274;71591;-73
2021/11/14 11:19:12;;;;;;;;;;;;;;;15.74;37.88;97797.49;107903;1275;66831;-74
2021/11/14 11:21:43;;;;;;;;;;;;;;;16.84;36.54;97793.94;107983;1272;69848;-73
2021/11/14 11:24:14;;;;;;;;;;;;;;;16.95;36.05;97794.66;107999;1272;59726;-74
2021/11/14 11:27:06;;;;;;;;;;;;;;;16.09;36.99;97797.33;108053;1272;59700;-74
2021/11/14 11:29:38;;;;;;;;;;;;;;;15.72;37.96;97795.39;108038;1272;71449;-73
2021/11/14 11:32:08;;;;;;;;;;;;;;;16.95;36.59;97793.80;107956;1274;67907;-74
2021/11/14 11:34:38;;;;;;;;;;;;;;;17.62;35.54;97790.52;108027;1272;67759;-74
2021/11/14 11:37:08;;;;;;;;;;;;;;;17.43;35.08;97791.46;107994;1272;60116;-76
2021/11/14 11:39:38;;;;;;;;;;;;;;;17.99;34.99;97791.73;108022;1272;59649;-75
2021/11/14 11:42:07;;;;;;;;;;;;;;;17.72;33.87;97791.00;108042;1274;70942;-75
2021/11/14 11:44:57;;;;;;;;;;;;;;;16.99;35.20;97793.27;108139;1271;67889;-75
2021/11/14 11:47:26;;;;;;;;;;;;;;;17.33;34.49;97789.06;107993;1270;70251;-75
2021/11/14 11:49:54;;;;;;;;;;;;;;;17.24;34.57;97786.89;108100;1272;59732;-74
2021/11/14 11:52:24;;;;;;;;;;;;;;;17.29;34.62;97791.65;108139;1272;59757;-75
2021/11/14 11:54:53;;;;;;;;;;;;;;;16.25;36.75;97791.56;108167;1272;71448;-76
2021/11/14 11:57:21;;;;;;;;;;;;;;;16.51;35.36;97796.10;108140;1272;68416;-76
2021/11/14 11:59:55;;;;;;;;;;;;;;;16.01;36.29;97793.71;108063;1271;69636;-75
2021/11/14 12:02:29;;;;;;;;;;;;;;;16.74;35.36;97793.41;108005;1274;60130;-75
2021/11/14 12:05:08;;;;;;;;;;;;;;;17.82;33.31;97789.79;108102;1271;59760;-72
2021/11/14 12:07:44;;;;;;;;;;;;;;;18.70;31.02;97790.92;108050;1271;70813;-75
2021/11/14 12:10:17;;;;;;;;;;;;;;;18.39;31.34;97792.41;108039;1272;69051;-75
2021/11/14 12:12:51;;;;;;;;;;;;;;;18.09;31.97;97795.55;108066;1272;69427;-75
2021/11/14 12:15:31;;;;;;;;;;;;;;;17.34;32.98;97792.14;108056;1272;59725;-76
2021/11/14 12:18:06;;;;;;;;;;;;;;;17.85;32.23;97794.14;108098;1272;59723;-76
2021/11/14 12:20:34;;;;;;;;;;;;;;;17.60;32.69;97792.09;108083;1272;71718;-72
2021/11/14 12:23:23;;;;;;;;;;;;;;;17.34;33.55;97791.27;108099;1272;67860;-72
2021/11/14 12:25:55;;;;;;;;;;;;;;;17.85;32.98;97794.48;108070;1272;69866;-75
2021/11/14 12:28:25;;;;;;;;;;;;;;;17.30;34.04;97797.90;108071;1272;59748;-76
2021/11/14 12:31:05;;;;;;;;;;;;;;;16.58;35.35;97799.34;108036;1271;59675;-75
2021/11/14 12:33:41;;;;;;;;;;;;;;;17.32;34.94;97795.80;108101;1272;71577;-73
2021/11/14 12:36:21;;;;;;;;;;;;;;;17.91;34.00;97794.29;108075;1271;68592;-73
2021/11/14 12:39:01;;;;;;;;;;;;;;;16.65;35.89;97802.02;108088;1272;69501;-74
2021/11/14 12:41:31;;;;;;;;;;;;;;;16.58;36.50;97802.69;108092;1272;59731;-73
2021/11/14 12:44:00;;;;;;;;;;;;;;;17.54;34.66;97799.04;108120;1272;59730;-75
2021/11/14 12:46:28;;;;;;;;;;;;;;;16.82;34.21;97796.28;108105;1272;71152;-75
2021/11/14 12:49:08;;;;;;;;;;;;;;;16.16;34.72;97793.95;108082;1272;68708;-74
2021/11/14 12:51:37;;;;;;;;;;;;;;;15.67;35.38;97794.45;108149;1271;69851;-75
2021/11/14 12:54:11;;;;;;;;;;;;;;;15.84;35.98;97790.98;108083;1272;59766;-74
2021/11/14 12:56:42;;;;;;;;;;;;;;;17.23;34.50;97787.80;107603;1272;507726;-75
2021/11/14 12:59:17;;;;;;;;;;;;;;;18.40;32.75;97787.20;108013;1272;71582;-75